sensor_id;sensor_type;location;lat;lon;timestamp;P1;durP1;ratioP1;P2;durP2;ratioP2
1376;SDS011;682;52.502;13.488;2023-02-17T00:01:26;39.67;;;30.03;;
1376;SDS011;682;52.502;13.488;2023-02-17T00:04:07;33.70;;;26.30;;
1376;SDS011;682;52.502;13.488;2023-02-17T00:06:43;31.87;;;25.77;;
1376;SDS011;682;52.502;13.488;2023-02-17T00:09:17;35.40;;;25.20;;
1376;SDS011;682;52.502;13.488;2023-02-17T00:11:54;37.80;;;25.73;;
1376;SDS011;682;52.502;13.488;2023-02-17T00:14:21;38.03;;;30.97;;
1376;SDS011;682;52.502;13.488;2023-02-17T00:16:53;34.13;;;25.80;;
1376;SDS011;682;52.502;13.488;2023-02-17T00:19:21;35.57;;;26.97;;
1376;SDS011;682;52.502;13.488;2023-02-17T00:21:55;36.20;;;25.27;;
1376;SDS011;682;52.502;13.488;2023-02-17T00:24:25;35.53;;;26.98;;
1376;SDS011;682;52.502;13.488;2023-02-17T00:26:55;32.60;;;25.80;;
1376;SDS011;682;52.502;13.488;2023-02-17T00:29:23;36.05;;;25.73;;
1376;SDS011;682;52.502;13.488;2023-02-17T00:31:51;35.30;;;27.02;;
1376;SDS011;682;52.502;13.488;2023-02-17T00:34:25;37.72;;;27.40;;
1376;SDS011;682;52.502;13.488;2023-02-17T00:36:53;40.08;;;27.98;;
1376;SDS011;682;52.502;13.488;2023-02-17T00:39:23;35.47;;;27.42;;
1376;SDS011;682;52.502;13.488;2023-02-17T00:41:53;37.67;;;27.63;;
1376;SDS011;682;52.502;13.488;2023-02-17T00:44:25;35.77;;;27.50;;
1376;SDS011;682;52.502;13.488;2023-02-17T00:46:55;36.15;;;28.00;;
1376;SDS011;682;52.502;13.488;2023-02-17T00:49:26;36.90;;;26.83;;
1376;SDS011;682;52.502;13.488;2023-02-17T00:52:05;36.88;;;27.92;;
1376;SDS011;682;52.502;13.488;2023-02-17T00:54:32;38.55;;;28.40;;
1376;SDS011;682;52.502;13.488;2023-02-17T00:57:06;40.00;;;28.20;;
1376;SDS011;682;52.502;13.488;2023-02-17T00:59:40;39.50;;;28.93;;
1376;SDS011;682;52.502;13.488;2023-02-17T01:02:16;37.70;;;26.10;;
1376;SDS011;682;52.502;13.488;2023-02-17T01:04:43;38.88;;;29.33;;
1376;SDS011;682;52.502;13.488;2023-02-17T01:07:14;40.45;;;28.38;;
1376;SDS011;682;52.502;13.488;2023-02-17T01:09:42;35.67;;;28.37;;
1376;SDS011;682;52.502;13.488;2023-02-17T01:12:13;38.40;;;27.58;;
1376;SDS011;682;52.502;13.488;2023-02-17T01:14:44;40.60;;;29.00;;
1376;SDS011;682;52.502;13.488;2023-02-17T01:17:11;38.55;;;27.52;;
1376;SDS011;682;52.502;13.488;2023-02-17T01:19:37;40.90;;;27.42;;
1376;SDS011;682;52.502;13.488;2023-02-17T01:22:05;37.47;;;27.50;;
1376;SDS011;682;52.502;13.488;2023-02-17T01:24:34;40.20;;;28.97;;
1376;SDS011;682;52.502;13.488;2023-02-17T01:27:01;36.80;;;26.03;;
1376;SDS011;682;52.502;13.488;2023-02-17T01:29:29;38.27;;;28.43;;
1376;SDS011;682;52.502;13.488;2023-02-17T01:32:02;39.53;;;28.10;;
1376;SDS011;682;52.502;13.488;2023-02-17T01:34:30;34.40;;;26.70;;
1376;SDS011;682;52.502;13.488;2023-02-17T01:36:56;38.53;;;27.30;;
1376;SDS011;682;52.502;13.488;2023-02-17T01:39:25;40.13;;;28.47;;
1376;SDS011;682;52.502;13.488;2023-02-17T01:41:52;35.63;;;27.50;;
1376;SDS011;682;52.502;13.488;2023-02-17T01:44:20;39.17;;;26.92;;
1376;SDS011;682;52.502;13.488;2023-02-17T01:46:50;38.07;;;26.30;;
1376;SDS011;682;52.502;13.488;2023-02-17T01:49:29;38.70;;;28.70;;
1376;SDS011;682;52.502;13.488;2023-02-17T01:52:02;35.95;;;25.70;;
1376;SDS011;682;52.502;13.488;2023-02-17T01:54:40;37.35;;;26.15;;
1376;SDS011;682;52.502;13.488;2023-02-17T01:57:13;35.93;;;26.30;;
1376;SDS011;682;52.502;13.488;2023-02-17T01:59:47;38.95;;;27.98;;
1376;SDS011;682;52.502;13.488;2023-02-17T02:02:18;36.40;;;27.85;;
1376;SDS011;682;52.502;13.488;2023-02-17T02:04:46;37.67;;;27.15;;
1376;SDS011;682;52.502;13.488;2023-02-17T02:07:18;38.50;;;29.13;;
1376;SDS011;682;52.502;13.488;2023-02-17T02:10:01;40.43;;;29.07;;
1376;SDS011;682;52.502;13.488;2023-02-17T02:12:30;38.50;;;28.02;;
1376;SDS011;682;52.502;13.488;2023-02-17T02:14:59;41.78;;;29.60;;
1376;SDS011;682;52.502;13.488;2023-02-17T02:17:34;43.00;;;30.30;;
1376;SDS011;682;52.502;13.488;2023-02-17T02:23:27;40.30;;;29.10;;
1376;SDS011;682;52.502;13.488;2023-02-17T02:26:29;42.95;;;29.48;;
1376;SDS011;682;52.502;13.488;2023-02-17T02:29:24;44.38;;;30.13;;
1376;SDS011;682;52.502;13.488;2023-02-17T02:35:07;46.60;;;33.27;;
1376;SDS011;682;52.502;13.488;2023-02-17T02:37:42;41.67;;;30.35;;
1376;SDS011;682;52.502;13.488;2023-02-17T02:40:12;41.72;;;29.33;;
1376;SDS011;682;52.502;13.488;2023-02-17T02:42:41;44.22;;;29.38;;
1376;SDS011;682;52.502;13.488;2023-02-17T02:45:10;43.70;;;31.30;;
1376;SDS011;682;52.502;13.488;2023-02-17T02:47:43;42.33;;;30.17;;
1376;SDS011;682;52.502;13.488;2023-02-17T02:50:19;44.03;;;29.13;;
1376;SDS011;682;52.502;13.488;2023-02-17T02:52:55;44.30;;;30.73;;
1376;SDS011;682;52.502;13.488;2023-02-17T02:55:43;42.23;;;29.90;;
1376;SDS011;682;52.502;13.488;2023-02-17T02:58:20;44.80;;;31.77;;
1376;SDS011;682;52.502;13.488;2023-02-17T03:01:01;42.53;;;32.10;;
1376;SDS011;682;52.502;13.488;2023-02-17T03:03:51;41.15;;;30.85;;
1376;SDS011;682;52.502;13.488;2023-02-17T03:06:42;45.22;;;30.75;;
1376;SDS011;682;52.502;13.488;2023-02-17T03:09:28;44.17;;;30.38;;
1376;SDS011;682;52.502;13.488;2023-02-17T03:11:58;44.67;;;30.58;;
1376;SDS011;682;52.502;13.488;2023-02-17T03:14:28;48.37;;;33.87;;
1376;SDS011;682;52.502;13.488;2023-02-17T03:17:08;44.72;;;32.22;;
1376;SDS011;682;52.502;13.488;2023-02-17T03:19:39;43.47;;;33.20;;
1376;SDS011;682;52.502;13.488;2023-02-17T03:22:12;49.20;;;34.30;;
1376;SDS011;682;52.502;13.488;2023-02-17T03:24:46;43.38;;;32.65;;
1376;SDS011;682;52.502;13.488;2023-02-17T03:27:15;47.60;;;33.00;;
1376;SDS011;682;52.502;13.488;2023-02-17T03:29:48;47.30;;;33.58;;
1376;SDS011;682;52.502;13.488;2023-02-17T03:32:17;44.70;;;32.35;;
1376;SDS011;682;52.502;13.488;2023-02-17T03:34:49;50.10;;;32.63;;
1376;SDS011;682;52.502;13.488;2023-02-17T03:37:18;54.00;;;32.28;;
1376;SDS011;682;52.502;13.488;2023-02-17T03:39:48;54.50;;;33.00;;
1376;SDS011;682;52.502;13.488;2023-02-17T03:42:16;46.50;;;32.38;;
1376;SDS011;682;52.502;13.488;2023-02-17T03:44:46;50.15;;;35.42;;
1376;SDS011;682;52.502;13.488;2023-02-17T03:47:20;51.13;;;34.85;;
1376;SDS011;682;52.502;13.488;2023-02-17T03:49:51;46.95;;;33.00;;
1376;SDS011;682;52.502;13.488;2023-02-17T03:52:28;46.42;;;31.65;;
1376;SDS011;682;52.502;13.488;2023-02-17T03:54:59;50.60;;;34.03;;
1376;SDS011;682;52.502;13.488;2023-02-17T03:57:29;51.85;;;35.10;;
1376;SDS011;682;52.502;13.488;2023-02-17T04:00:00;48.47;;;35.35;;
1376;SDS011;682;52.502;13.488;2023-02-17T04:02:31;49.33;;;35.38;;
1376;SDS011;682;52.502;13.488;2023-02-17T04:05:00;46.35;;;33.78;;
1376;SDS011;682;52.502;13.488;2023-02-17T04:07:28;49.22;;;35.53;;
1376;SDS011;682;52.502;13.488;2023-02-17T04:09:59;53.67;;;36.28;;
1376;SDS011;682;52.502;13.488;2023-02-17T04:12:29;49.08;;;33.65;;
1376;SDS011;682;52.502;13.488;2023-02-17T04:14:58;50.33;;;34.25;;
1376;SDS011;682;52.502;13.488;2023-02-17T04:17:28;47.57;;;34.17;;
1376;SDS011;682;52.502;13.488;2023-02-17T04:20:00;45.65;;;33.08;;
1376;SDS011;682;52.502;13.488;2023-02-17T04:22:28;44.97;;;34.47;;
1376;SDS011;682;52.502;13.488;2023-02-17T04:24:58;50.75;;;34.13;;
1376;SDS011;682;52.502;13.488;2023-02-17T04:27:25;51.28;;;35.67;;
1376;SDS011;682;52.502;13.488;2023-02-17T04:29:55;44.35;;;32.95;;
1376;SDS011;682;52.502;13.488;2023-02-17T04:32:31;48.90;;;34.65;;
1376;SDS011;682;52.502;13.488;2023-02-17T04:35:10;47.17;;;35.17;;
1376;SDS011;682;52.502;13.488;2023-02-17T04:37:38;50.42;;;34.70;;
1376;SDS011;682;52.502;13.488;2023-02-17T04:40:12;48.70;;;34.50;;
1376;SDS011;682;52.502;13.488;2023-02-17T04:42:46;50.20;;;33.80;;
1376;SDS011;682;52.502;13.488;2023-02-17T04:45:18;46.25;;;33.85;;
1376;SDS011;682;52.502;13.488;2023-02-17T04:47:48;45.20;;;32.08;;
1376;SDS011;682;52.502;13.488;2023-02-17T04:50:19;48.17;;;33.03;;
1376;SDS011;682;52.502;13.488;2023-02-17T04:52:48;51.10;;;35.20;;
1376;SDS011;682;52.502;13.488;2023-02-17T04:55:20;44.75;;;33.00;;
1376;SDS011;682;52.502;13.488;2023-02-17T04:57:48;43.28;;;32.08;;
1376;SDS011;682;52.502;13.488;2023-02-17T05:00:19;43.10;;;30.03;;
1376;SDS011;682;52.502;13.488;2023-02-17T05:02:49;47.42;;;31.08;;
1376;SDS011;682;52.502;13.488;2023-02-17T05:05:21;42.92;;;31.25;;
1376;SDS011;682;52.502;13.488;2023-02-17T05:08:00;46.00;;;31.20;;
1376;SDS011;682;52.502;13.488;2023-02-17T05:10:29;44.80;;;33.07;;
1376;SDS011;682;52.502;13.488;2023-02-17T05:13:00;47.67;;;33.08;;
1376;SDS011;682;52.502;13.488;2023-02-17T05:15:27;44.70;;;32.13;;
1376;SDS011;682;52.502;13.488;2023-02-17T05:17:56;47.30;;;33.60;;
1376;SDS011;682;52.502;13.488;2023-02-17T05:20:30;47.53;;;32.83;;
1376;SDS011;682;52.502;13.488;2023-02-17T05:22:58;42.38;;;31.30;;
1376;SDS011;682;52.502;13.488;2023-02-17T05:25:26;44.50;;;30.43;;
1376;SDS011;682;52.502;13.488;2023-02-17T05:27:59;49.38;;;34.28;;
1376;SDS011;682;52.502;13.488;2023-02-17T05:30:32;48.60;;;34.67;;
1376;SDS011;682;52.502;13.488;2023-02-17T05:33:19;47.20;;;32.45;;
1376;SDS011;682;52.502;13.488;2023-02-17T05:35:48;49.00;;;33.28;;
1376;SDS011;682;52.502;13.488;2023-02-17T05:38:16;49.45;;;32.25;;
1376;SDS011;682;52.502;13.488;2023-02-17T05:40:49;50.92;;;34.65;;
1376;SDS011;682;52.502;13.488;2023-02-17T05:43:18;49.40;;;35.08;;
1376;SDS011;682;52.502;13.488;2023-02-17T05:45:47;47.78;;;31.92;;
1376;SDS011;682;52.502;13.488;2023-02-17T05:48:21;47.17;;;33.83;;
1376;SDS011;682;52.502;13.488;2023-02-17T05:50:49;48.05;;;33.30;;
1376;SDS011;682;52.502;13.488;2023-02-17T05:53:18;46.97;;;31.48;;
1376;SDS011;682;52.502;13.488;2023-02-17T05:55:50;49.33;;;32.10;;
1376;SDS011;682;52.502;13.488;2023-02-17T05:58:19;44.20;;;31.57;;
1376;SDS011;682;52.502;13.488;2023-02-17T06:00:49;43.35;;;30.45;;
1376;SDS011;682;52.502;13.488;2023-02-17T06:03:22;45.47;;;30.90;;
1376;SDS011;682;52.502;13.488;2023-02-17T06:05:52;51.67;;;33.60;;
1376;SDS011;682;52.502;13.488;2023-02-17T06:08:42;43.97;;;30.97;;
1376;SDS011;682;52.502;13.488;2023-02-17T06:11:19;48.40;;;32.00;;
1376;SDS011;682;52.502;13.488;2023-02-17T06:13:49;44.53;;;30.20;;
1376;SDS011;682;52.502;13.488;2023-02-17T06:16:19;44.97;;;32.20;;
1376;SDS011;682;52.502;13.488;2023-02-17T06:18:48;41.88;;;31.15;;
1376;SDS011;682;52.502;13.488;2023-02-17T06:24:03;42.40;;;29.42;;
1376;SDS011;682;52.502;13.488;2023-02-17T06:26:39;41.20;;;30.57;;
1376;SDS011;682;52.502;13.488;2023-02-17T06:29:09;41.97;;;29.48;;
1376;SDS011;682;52.502;13.488;2023-02-17T06:31:39;40.80;;;29.58;;
1376;SDS011;682;52.502;13.488;2023-02-17T06:34:09;46.92;;;31.45;;
1376;SDS011;682;52.502;13.488;2023-02-17T06:36:45;47.63;;;31.70;;
1376;SDS011;682;52.502;13.488;2023-02-17T06:39:21;44.93;;;32.10;;
1376;SDS011;682;52.502;13.488;2023-02-17T06:42:00;41.03;;;29.10;;
1376;SDS011;682;52.502;13.488;2023-02-17T06:44:41;40.40;;;29.77;;
1376;SDS011;682;52.502;13.488;2023-02-17T06:47:17;38.53;;;29.17;;
1376;SDS011;682;52.502;13.488;2023-02-17T06:49:47;38.83;;;28.42;;
1376;SDS011;682;52.502;13.488;2023-02-17T06:52:20;37.40;;;29.00;;
1376;SDS011;682;52.502;13.488;2023-02-17T06:54:48;38.70;;;27.80;;
1376;SDS011;682;52.502;13.488;2023-02-17T06:57:15;37.47;;;28.03;;
1376;SDS011;682;52.502;13.488;2023-02-17T06:59:49;38.23;;;27.97;;
1376;SDS011;682;52.502;13.488;2023-02-17T07:02:19;37.50;;;27.53;;
1376;SDS011;682;52.502;13.488;2023-02-17T07:04:49;39.60;;;27.50;;
1376;SDS011;682;52.502;13.488;2023-02-17T07:07:23;35.37;;;26.47;;
1376;SDS011;682;52.502;13.488;2023-02-17T07:09:55;34.15;;;25.83;;
1376;SDS011;682;52.502;13.488;2023-02-17T07:12:26;36.93;;;25.90;;
1376;SDS011;682;52.502;13.488;2023-02-17T07:14:59;35.60;;;24.60;;
1376;SDS011;682;52.502;13.488;2023-02-17T07:17:32;37.53;;;26.40;;
1376;SDS011;682;52.502;13.488;2023-02-17T07:20:00;29.58;;;23.80;;
1376;SDS011;682;52.502;13.488;2023-02-17T07:22:31;32.33;;;24.70;;
1376;SDS011;682;52.502;13.488;2023-02-17T07:25:09;34.63;;;26.17;;
1376;SDS011;682;52.502;13.488;2023-02-17T07:27:40;31.03;;;22.13;;
1376;SDS011;682;52.502;13.488;2023-02-17T07:30:09;30.70;;;23.63;;
1376;SDS011;682;52.502;13.488;2023-02-17T07:32:41;29.10;;;23.50;;
1376;SDS011;682;52.502;13.488;2023-02-17T07:35:09;32.73;;;24.27;;
1376;SDS011;682;52.502;13.488;2023-02-17T07:37:39;29.70;;;24.10;;
1376;SDS011;682;52.502;13.488;2023-02-17T07:40:09;30.43;;;23.23;;
1376;SDS011;682;52.502;13.488;2023-02-17T07:42:37;32.23;;;23.13;;
1376;SDS011;682;52.502;13.488;2023-02-17T07:45:09;28.53;;;23.03;;
1376;SDS011;682;52.502;13.488;2023-02-17T07:47:39;29.27;;;23.10;;
1376;SDS011;682;52.502;13.488;2023-02-17T07:50:10;28.33;;;21.13;;
1376;SDS011;682;52.502;13.488;2023-02-17T07:55:51;29.07;;;22.07;;
1376;SDS011;682;52.502;13.488;2023-02-17T07:58:19;28.30;;;22.00;;
1376;SDS011;682;52.502;13.488;2023-02-17T08:00:47;27.40;;;20.47;;
1376;SDS011;682;52.502;13.488;2023-02-17T08:03:20;27.43;;;20.60;;
1376;SDS011;682;52.502;13.488;2023-02-17T08:05:52;26.87;;;20.10;;
1376;SDS011;682;52.502;13.488;2023-02-17T08:08:33;25.70;;;19.67;;
1376;SDS011;682;52.502;13.488;2023-02-17T08:11:17;27.70;;;21.10;;
1376;SDS011;682;52.502;13.488;2023-02-17T08:14:03;26.70;;;20.40;;
1376;SDS011;682;52.502;13.488;2023-02-17T08:16:34;24.03;;;19.40;;
1376;SDS011;682;52.502;13.488;2023-02-17T08:19:09;27.10;;;20.73;;
1376;SDS011;682;52.502;13.488;2023-02-17T08:21:39;27.70;;;18.33;;
1376;SDS011;682;52.502;13.488;2023-02-17T08:24:13;26.63;;;19.57;;
1376;SDS011;682;52.502;13.488;2023-02-17T08:27:07;25.37;;;17.80;;
1376;SDS011;682;52.502;13.488;2023-02-17T08:29:39;23.40;;;18.43;;
1376;SDS011;682;52.502;13.488;2023-02-17T08:32:07;25.83;;;18.80;;
1376;SDS011;682;52.502;13.488;2023-02-17T08:34:43;26.47;;;19.87;;
1376;SDS011;682;52.502;13.488;2023-02-17T08:37:18;28.40;;;19.83;;
1376;SDS011;682;52.502;13.488;2023-02-17T08:39:51;27.10;;;20.00;;
1376;SDS011;682;52.502;13.488;2023-02-17T08:42:21;26.93;;;19.10;;
1376;SDS011;682;52.502;13.488;2023-02-17T08:44:59;25.80;;;19.70;;
1376;SDS011;682;52.502;13.488;2023-02-17T08:47:29;23.77;;;18.50;;
1376;SDS011;682;52.502;13.488;2023-02-17T08:49:56;26.37;;;19.33;;
1376;SDS011;682;52.502;13.488;2023-02-17T08:52:41;27.60;;;19.53;;
1376;SDS011;682;52.502;13.488;2023-02-17T08:55:11;24.60;;;18.80;;
1376;SDS011;682;52.502;13.488;2023-02-17T08:57:54;22.70;;;18.83;;
1376;SDS011;682;52.502;13.488;2023-02-17T09:00:29;24.93;;;18.93;;
1376;SDS011;682;52.502;13.488;2023-02-17T09:03:33;24.43;;;20.40;;
1376;SDS011;682;52.502;13.488;2023-02-17T09:06:01;26.67;;;19.17;;
1376;SDS011;682;52.502;13.488;2023-02-17T09:08:29;24.30;;;19.40;;
1376;SDS011;682;52.502;13.488;2023-02-17T09:11:00;25.67;;;19.77;;
1376;SDS011;682;52.502;13.488;2023-02-17T09:13:42;25.23;;;19.40;;
1376;SDS011;682;52.502;13.488;2023-02-17T09:16:12;25.17;;;19.33;;
1376;SDS011;682;52.502;13.488;2023-02-17T09:18:40;26.47;;;20.20;;
1376;SDS011;682;52.502;13.488;2023-02-17T09:21:22;25.60;;;19.90;;
1376;SDS011;682;52.502;13.488;2023-02-17T09:23:51;25.17;;;19.53;;
1376;SDS011;682;52.502;13.488;2023-02-17T09:26:20;23.03;;;18.73;;
1376;SDS011;682;52.502;13.488;2023-02-17T09:28:52;27.23;;;19.73;;
1376;SDS011;682;52.502;13.488;2023-02-17T09:31:33;27.87;;;19.80;;
1376;SDS011;682;52.502;13.488;2023-02-17T09:34:10;29.07;;;20.80;;
1376;SDS011;682;52.502;13.488;2023-02-17T09:36:41;24.30;;;19.43;;
1376;SDS011;682;52.502;13.488;2023-02-17T09:39:12;27.83;;;20.13;;
1376;SDS011;682;52.502;13.488;2023-02-17T09:41:40;26.33;;;19.33;;
1376;SDS011;682;52.502;13.488;2023-02-17T09:47:11;28.50;;;20.20;;
1376;SDS011;682;52.502;13.488;2023-02-17T09:49:58;28.27;;;19.93;;
1376;SDS011;682;52.502;13.488;2023-02-17T09:52:40;25.07;;;18.77;;
1376;SDS011;682;52.502;13.488;2023-02-17T09:55:40;26.23;;;19.30;;
1376;SDS011;682;52.502;13.488;2023-02-17T09:58:10;25.53;;;19.27;;
1376;SDS011;682;52.502;13.488;2023-02-17T10:01:00;25.77;;;19.90;;
1376;SDS011;682;52.502;13.488;2023-02-17T10:03:40;25.43;;;19.13;;
1376;SDS011;682;52.502;13.488;2023-02-17T10:06:22;27.13;;;20.17;;
1376;SDS011;682;52.502;13.488;2023-02-17T10:09:02;25.30;;;19.40;;
1376;SDS011;682;52.502;13.488;2023-02-17T10:11:38;25.40;;;18.87;;
1376;SDS011;682;52.502;13.488;2023-02-17T10:14:21;24.87;;;18.90;;
1376;SDS011;682;52.502;13.488;2023-02-17T10:17:02;24.17;;;18.40;;
1376;SDS011;682;52.502;13.488;2023-02-17T10:19:33;25.37;;;20.47;;
1376;SDS011;682;52.502;13.488;2023-02-17T10:22:13;24.27;;;18.90;;
1376;SDS011;682;52.502;13.488;2023-02-17T10:24:51;29.10;;;22.17;;
1376;SDS011;682;52.502;13.488;2023-02-17T10:27:31;28.93;;;22.17;;
1376;SDS011;682;52.502;13.488;2023-02-17T10:30:16;30.50;;;21.67;;
1376;SDS011;682;52.502;13.488;2023-02-17T10:33:16;27.67;;;21.97;;
1376;SDS011;682;52.502;13.488;2023-02-17T10:36:10;30.03;;;21.13;;
1376;SDS011;682;52.502;13.488;2023-02-17T10:38:50;28.40;;;22.30;;
1376;SDS011;682;52.502;13.488;2023-02-17T10:41:21;26.37;;;21.23;;
1376;SDS011;682;52.502;13.488;2023-02-17T10:44:00;29.63;;;23.17;;
1376;SDS011;682;52.502;13.488;2023-02-17T10:46:42;28.50;;;21.50;;
1376;SDS011;682;52.502;13.488;2023-02-17T10:49:14;27.23;;;22.17;;
1376;SDS011;682;52.502;13.488;2023-02-17T10:52:12;33.03;;;21.77;;
1376;SDS011;682;52.502;13.488;2023-02-17T10:54:49;27.70;;;22.80;;
1376;SDS011;682;52.502;13.488;2023-02-17T10:57:34;29.97;;;22.83;;
1376;SDS011;682;52.502;13.488;2023-02-17T11:00:13;28.50;;;21.73;;
1376;SDS011;682;52.502;13.488;2023-02-17T11:03:02;28.53;;;23.40;;
1376;SDS011;682;52.502;13.488;2023-02-17T11:05:32;31.40;;;21.90;;
1376;SDS011;682;52.502;13.488;2023-02-17T11:08:23;27.60;;;22.07;;
1376;SDS011;682;52.502;13.488;2023-02-17T11:11:00;29.13;;;22.90;;
1376;SDS011;682;52.502;13.488;2023-02-17T11:16:31;27.53;;;22.43;;
1376;SDS011;682;52.502;13.488;2023-02-17T11:19:17;27.07;;;22.13;;
1376;SDS011;682;52.502;13.488;2023-02-17T11:21:53;27.83;;;21.83;;
1376;SDS011;682;52.502;13.488;2023-02-17T11:24:32;27.13;;;21.23;;
1376;SDS011;682;52.502;13.488;2023-02-17T11:27:02;26.33;;;20.60;;
1376;SDS011;682;52.502;13.488;2023-02-17T11:29:44;26.40;;;21.33;;
1376;SDS011;682;52.502;13.488;2023-02-17T11:32:42;29.07;;;22.63;;
1376;SDS011;682;52.502;13.488;2023-02-17T11:35:21;24.37;;;19.37;;
1376;SDS011;682;52.502;13.488;2023-02-17T11:40:39;27.07;;;20.17;;
1376;SDS011;682;52.502;13.488;2023-02-17T11:43:22;24.03;;;18.30;;
1376;SDS011;682;52.502;13.488;2023-02-17T11:46:14;27.50;;;19.53;;
1376;SDS011;682;52.502;13.488;2023-02-17T11:49:04;22.73;;;18.30;;
1376;SDS011;682;52.502;13.488;2023-02-17T11:52:03;23.83;;;17.90;;
1376;SDS011;682;52.502;13.488;2023-02-17T11:54:54;22.43;;;17.77;;
1376;SDS011;682;52.502;13.488;2023-02-17T11:58:00;23.40;;;17.23;;
1376;SDS011;682;52.502;13.488;2023-02-17T12:00:50;22.00;;;17.50;;
1376;SDS011;682;52.502;13.488;2023-02-17T12:06:32;23.10;;;16.23;;
1376;SDS011;682;52.502;13.488;2023-02-17T12:09:19;21.27;;;15.80;;
1376;SDS011;682;52.502;13.488;2023-02-17T12:11:55;18.80;;;14.30;;
1376;SDS011;682;52.502;13.488;2023-02-17T12:14:43;24.97;;;16.10;;
1376;SDS011;682;52.502;13.488;2023-02-17T12:17:29;22.13;;;14.23;;
1376;SDS011;682;52.502;13.488;2023-02-17T12:20:14;19.80;;;15.50;;
1376;SDS011;682;52.502;13.488;2023-02-17T12:23:23;19.10;;;13.60;;
1376;SDS011;682;52.502;13.488;2023-02-17T12:26:11;16.40;;;12.50;;
1376;SDS011;682;52.502;13.488;2023-02-17T12:28:50;17.70;;;13.10;;
1376;SDS011;682;52.502;13.488;2023-02-17T12:31:29;16.67;;;12.13;;
1376;SDS011;682;52.502;13.488;2023-02-17T12:34:18;17.07;;;11.83;;
1376;SDS011;682;52.502;13.488;2023-02-17T12:37:01;18.17;;;12.17;;
1376;SDS011;682;52.502;13.488;2023-02-17T12:39:37;16.83;;;11.33;;
1376;SDS011;682;52.502;13.488;2023-02-17T12:42:14;17.23;;;11.33;;
1376;SDS011;682;52.502;13.488;2023-02-17T12:44:46;16.50;;;10.77;;
1376;SDS011;682;52.502;13.488;2023-02-17T12:47:27;15.70;;;10.47;;
1376;SDS011;682;52.502;13.488;2023-02-17T12:50:02;13.97;;;9.20;;
1376;SDS011;682;52.502;13.488;2023-02-17T12:52:32;15.07;;;9.67;;
1376;SDS011;682;52.502;13.488;2023-02-17T12:55:10;13.70;;;8.83;;
1376;SDS011;682;52.502;13.488;2023-02-17T12:57:43;14.50;;;10.77;;
1376;SDS011;682;52.502;13.488;2023-02-17T13:00:18;13.53;;;8.93;;
1376;SDS011;682;52.502;13.488;2023-02-17T13:02:58;13.50;;;8.53;;
1376;SDS011;682;52.502;13.488;2023-02-17T13:05:38;13.67;;;9.07;;
1376;SDS011;682;52.502;13.488;2023-02-17T13:08:13;12.73;;;8.30;;
1376;SDS011;682;52.502;13.488;2023-02-17T13:11:09;13.10;;;8.73;;
1376;SDS011;682;52.502;13.488;2023-02-17T13:13:58;12.53;;;8.30;;
1376;SDS011;682;52.502;13.488;2023-02-17T13:16:44;12.03;;;8.57;;
1376;SDS011;682;52.502;13.488;2023-02-17T13:19:14;12.93;;;9.00;;
1376;SDS011;682;52.502;13.488;2023-02-17T13:21:53;14.37;;;8.97;;
1376;SDS011;682;52.502;13.488;2023-02-17T13:24:32;14.03;;;8.87;;
1376;SDS011;682;52.502;13.488;2023-02-17T13:30:05;11.27;;;8.00;;
1376;SDS011;682;52.502;13.488;2023-02-17T13:33:14;12.73;;;8.00;;
1376;SDS011;682;52.502;13.488;2023-02-17T13:36:17;12.30;;;8.53;;
1376;SDS011;682;52.502;13.488;2023-02-17T13:39:01;11.90;;;7.57;;
1376;SDS011;682;52.502;13.488;2023-02-17T13:41:53;11.40;;;7.47;;
1376;SDS011;682;52.502;13.488;2023-02-17T13:44:26;12.50;;;7.63;;
1376;SDS011;682;52.502;13.488;2023-02-17T13:46:56;11.20;;;7.63;;
1376;SDS011;682;52.502;13.488;2023-02-17T13:49:30;10.73;;;6.77;;
1376;SDS011;682;52.502;13.488;2023-02-17T13:52:06;11.10;;;6.77;;
1376;SDS011;682;52.502;13.488;2023-02-17T13:54:49;10.63;;;6.70;;
1376;SDS011;682;52.502;13.488;2023-02-17T13:57:25;12.30;;;8.00;;
1376;SDS011;682;52.502;13.488;2023-02-17T14:00:15;9.70;;;6.10;;
1376;SDS011;682;52.502;13.488;2023-02-17T14:02:56;12.10;;;6.43;;
1376;SDS011;682;52.502;13.488;2023-02-17T14:05:53;9.50;;;6.20;;
1376;SDS011;682;52.502;13.488;2023-02-17T14:08:27;9.63;;;5.53;;
1376;SDS011;682;52.502;13.488;2023-02-17T14:11:09;11.50;;;6.10;;
1376;SDS011;682;52.502;13.488;2023-02-17T14:13:48;10.57;;;6.33;;
1376;SDS011;682;52.502;13.488;2023-02-17T14:16:28;10.43;;;6.50;;
1376;SDS011;682;52.502;13.488;2023-02-17T14:19:06;9.67;;;6.13;;
1376;SDS011;682;52.502;13.488;2023-02-17T14:21:56;9.67;;;5.63;;
1376;SDS011;682;52.502;13.488;2023-02-17T14:24:36;10.93;;;6.70;;
1376;SDS011;682;52.502;13.488;2023-02-17T14:27:05;9.63;;;5.57;;
1376;SDS011;682;52.502;13.488;2023-02-17T14:29:47;10.83;;;6.20;;
1376;SDS011;682;52.502;13.488;2023-02-17T14:32:36;11.03;;;6.20;;
1376;SDS011;682;52.502;13.488;2023-02-17T14:35:08;11.00;;;6.67;;
1376;SDS011;682;52.502;13.488;2023-02-17T14:37:49;11.00;;;6.90;;
1376;SDS011;682;52.502;13.488;2023-02-17T14:40:38;13.50;;;6.53;;
1376;SDS011;682;52.502;13.488;2023-02-17T14:43:08;9.70;;;6.50;;
1376;SDS011;682;52.502;13.488;2023-02-17T14:45:35;11.97;;;7.50;;
1376;SDS011;682;52.502;13.488;2023-02-17T14:48:06;11.17;;;6.80;;
1376;SDS011;682;52.502;13.488;2023-02-17T14:50:39;12.90;;;5.97;;
1376;SDS011;682;52.502;13.488;2023-02-17T14:53:19;10.47;;;7.63;;
1376;SDS011;682;52.502;13.488;2023-02-17T14:55:55;14.83;;;7.90;;
1376;SDS011;682;52.502;13.488;2023-02-17T14:58:27;13.20;;;7.40;;
1376;SDS011;682;52.502;13.488;2023-02-17T15:01:04;12.10;;;7.73;;
1376;SDS011;682;52.502;13.488;2023-02-17T15:03:47;12.10;;;8.73;;
1376;SDS011;682;52.502;13.488;2023-02-17T15:06:15;15.30;;;9.17;;
1376;SDS011;682;52.502;13.488;2023-02-17T15:08:45;14.00;;;9.10;;
1376;SDS011;682;52.502;13.488;2023-02-17T15:11:35;20.47;;;10.87;;
1376;SDS011;682;52.502;13.488;2023-02-17T15:14:15;13.10;;;8.70;;
1376;SDS011;682;52.502;13.488;2023-02-17T15:16:45;15.13;;;10.50;;
1376;SDS011;682;52.502;13.488;2023-02-17T15:19:17;16.23;;;10.27;;
1376;SDS011;682;52.502;13.488;2023-02-17T15:21:45;14.67;;;10.23;;
1376;SDS011;682;52.502;13.488;2023-02-17T15:24:25;15.30;;;10.60;;
1376;SDS011;682;52.502;13.488;2023-02-17T15:26:55;15.50;;;10.30;;
1376;SDS011;682;52.502;13.488;2023-02-17T15:29:26;15.23;;;10.70;;
1376;SDS011;682;52.502;13.488;2023-02-17T15:32:14;16.00;;;10.83;;
1376;SDS011;682;52.502;13.488;2023-02-17T15:34:57;15.93;;;11.53;;
1376;SDS011;682;52.502;13.488;2023-02-17T15:37:25;15.17;;;11.20;;
1376;SDS011;682;52.502;13.488;2023-02-17T15:39:56;15.27;;;10.97;;
1376;SDS011;682;52.502;13.488;2023-02-17T15:42:23;15.70;;;11.80;;
1376;SDS011;682;52.502;13.488;2023-02-17T15:44:53;16.83;;;11.40;;
1376;SDS011;682;52.502;13.488;2023-02-17T15:47:27;15.33;;;11.23;;
1376;SDS011;682;52.502;13.488;2023-02-17T15:49:55;15.57;;;11.90;;
1376;SDS011;682;52.502;13.488;2023-02-17T15:52:25;16.30;;;11.50;;
1376;SDS011;682;52.502;13.488;2023-02-17T15:54:55;19.77;;;14.73;;
1376;SDS011;682;52.502;13.488;2023-02-17T15:57:25;16.73;;;12.33;;
1376;SDS011;682;52.502;13.488;2023-02-17T15:59:53;16.23;;;12.13;;
1376;SDS011;682;52.502;13.488;2023-02-17T16:02:25;15.93;;;12.47;;
1376;SDS011;682;52.502;13.488;2023-02-17T16:04:53;16.40;;;11.50;;
1376;SDS011;682;52.502;13.488;2023-02-17T16:07:27;17.83;;;12.90;;